createdAt,value
2022-08-21T00:00:22.476Z,100453.38
2022-08-21T00:02:53.322Z,100447.84
2022-08-21T00:05:20.540Z,100451.00
2022-08-21T00:07:47.287Z,100448.03
2022-08-21T00:10:14.612Z,100448.16
2022-08-21T00:12:42.540Z,100448.44
2022-08-21T00:15:11.178Z,100417.34
2022-08-21T00:17:38.460Z,100424.69
2022-08-21T00:20:09.534Z,100426.66
2022-08-21T00:22:37.621Z,100405.63
2022-08-21T00:25:06.825Z,100423.66
2022-08-21T00:27:34.433Z,100426.94
2022-08-21T00:30:01.092Z,100420.00
2022-08-21T00:32:29.014Z,100423.53
2022-08-21T00:34:55.634Z,100426.47
2022-08-21T00:37:22.763Z,100416.78
2022-08-21T00:39:50.110Z,100424.84
2022-08-21T00:42:17.354Z,100431.84
2022-08-21T00:44:45.850Z,100405.94
2022-08-21T00:47:12.998Z,100426.03
2022-08-21T00:49:41.216Z,100428.59
2022-08-21T00:52:11.981Z,100432.16
2022-08-21T00:54:40.363Z,100427.75
2022-08-21T00:57:16.999Z,100429.97
2022-08-21T00:59:46.832Z,100425.81
2022-08-21T01:02:14.250Z,100429.25
2022-08-21T01:04:40.999Z,100411.31
2022-08-21T01:07:07.982Z,100411.66
2022-08-21T01:09:34.818Z,100407.88
2022-08-21T01:12:01.828Z,100429.47
2022-08-21T01:14:29.675Z,100423.97
2022-08-21T01:16:58.712Z,100421.44
2022-08-21T01:19:26.442Z,100421.44
2022-08-21T01:21:54.709Z,100406.34
2022-08-21T01:24:22.270Z,100395.25
2022-08-21T01:26:50.617Z,100428.28
2022-08-21T01:29:38.921Z,100428.91
2022-08-21T01:32:18.374Z,100432.09
2022-08-21T01:34:48.041Z,100427.25
2022-08-21T01:37:16.155Z,100413.72
2022-08-21T01:39:45.492Z,100435.44
2022-08-21T01:42:12.242Z,100437.38
2022-08-21T01:44:38.938Z,100415.91
2022-08-21T01:47:09.595Z,100407.78
2022-08-21T01:49:37.976Z,100423.84
2022-08-21T01:52:05.742Z,100428.47
2022-08-21T01:54:36.362Z,100429.63
2022-08-21T01:57:03.476Z,100419.97
2022-08-21T01:59:30.138Z,100421.06
2022-08-21T02:01:58.501Z,100421.06
2022-08-21T02:04:25.217Z,100419.38
2022-08-21T02:06:51.974Z,100418.38
2022-08-21T02:09:19.410Z,100419.38
2022-08-21T02:11:47.102Z,100401.47
2022-08-21T02:14:15.761Z,100420.34
2022-08-21T02:17:03.408Z,100413.78
2022-08-21T02:19:40.009Z,100420.13
2022-08-21T02:22:09.286Z,100410.84
2022-08-21T02:24:38.523Z,100416.22
2022-08-21T02:27:26.241Z,100409.50
2022-08-21T02:29:54.871Z,100405.88
2022-08-21T02:32:22.394Z,100411.13
2022-08-21T02:34:49.928Z,100409.53
2022-08-21T02:37:16.689Z,100399.63
2022-08-21T02:39:43.352Z,100407.22
2022-08-21T02:42:09.966Z,100394.50
2022-08-21T02:44:36.587Z,100382.31
2022-08-21T02:47:03.196Z,100403.78
2022-08-21T02:49:29.729Z,100405.63
2022-08-21T02:51:56.284Z,100410.13
2022-08-21T02:54:22.823Z,100412.06
2022-08-21T02:56:49.394Z,100402.19
2022-08-21T02:59:15.976Z,100405.72
2022-08-21T03:01:42.578Z,100404.63
2022-08-21T03:04:09.175Z,100406.94
2022-08-21T03:06:35.780Z,100406.94
2022-08-21T03:09:02.445Z,100389.03
2022-08-21T03:11:29.466Z,100404.75
2022-08-21T03:13:56.055Z,100400.84
2022-08-21T03:16:22.684Z,100395.84
2022-08-21T03:18:49.320Z,100393.41
2022-08-21T03:21:15.942Z,100387.81
2022-08-21T03:23:43.079Z,100398.53
2022-08-21T03:26:11.776Z,100400.81
2022-08-21T03:28:38.392Z,100395.00
2022-08-21T03:31:05.747Z,100383.38
2022-08-21T03:33:33.076Z,100411.31
2022-08-21T03:36:12.178Z,100404.75
2022-08-21T03:38:39.591Z,100406.81
2022-08-21T03:41:07.114Z,100410.69
2022-08-21T03:43:35.033Z,100406.19
2022-08-21T03:46:04.425Z,100414.44
2022-08-21T03:48:31.651Z,100416.38
2022-08-21T03:50:58.301Z,100410.56
2022-08-21T03:53:27.422Z,100410.56
2022-08-21T03:55:54.349Z,100416.78
2022-08-21T03:58:24.694Z,100422.13
2022-08-21T04:00:54.929Z,100428.56
2022-08-21T04:03:22.374Z,100432.00
2022-08-21T04:05:49.172Z,100430.28
2022-08-21T04:08:19.599Z,100432.50
2022-08-21T04:10:47.259Z,100435.03
2022-08-21T04:13:13.853Z,100435.56
2022-08-21T04:15:40.776Z,100418.25
2022-08-21T04:18:07.930Z,100448.38
2022-08-21T04:20:36.307Z,100441.19
2022-08-21T04:23:03.653Z,100441.53
2022-08-21T04:25:30.564Z,100430.53
2022-08-21T04:27:57.216Z,100446.91
2022-08-21T04:30:28.228Z,100447.59
2022-08-21T04:32:57.755Z,100454.78
2022-08-21T04:35:27.410Z,100443.78
2022-08-21T04:37:54.472Z,100444.47
2022-08-21T04:40:23.293Z,100457.63
2022-08-21T04:42:52.629Z,100458.94
2022-08-21T04:45:23.165Z,100461.25
2022-08-21T04:47:54.802Z,100454.19
2022-08-21T04:50:25.643Z,100461.88
2022-08-21T04:52:52.811Z,100442.63
2022-08-21T04:55:20.076Z,100462.31
2022-08-21T04:57:48.427Z,100467.81
2022-08-21T05:00:19.365Z,100466.22
2022-08-21T05:02:48.473Z,100474.88
2022-08-21T05:05:15.517Z,100468.56
2022-08-21T05:07:44.804Z,100479.84
2022-08-21T05:10:12.651Z,100479.94
2022-08-21T05:12:42.996Z,100472.81
2022-08-21T05:15:13.526Z,100485.25
2022-08-21T05:17:41.748Z,100478.94
2022-08-21T05:20:13.379Z,100489.16
2022-08-21T05:22:40.092Z,100473.28
2022-08-21T05:25:10.186Z,100487.81
2022-08-21T05:27:39.749Z,100489.63
2022-08-21T05:30:10.738Z,100464.84
2022-08-21T05:32:37.859Z,100485.03
2022-08-21T05:35:09.031Z,100483.19
2022-08-21T05:37:35.929Z,100494.19
2022-08-21T05:40:04.761Z,100492.13
2022-08-21T05:42:54.648Z,100489.25
2022-08-21T05:45:39.338Z,100500.84
2022-08-21T05:48:13.385Z,100496.34
2022-08-21T05:50:40.157Z,100494.69
2022-08-21T05:53:07.385Z,100495.91
2022-08-21T05:55:34.613Z,100497.16
2022-08-21T05:58:01.710Z,100500.09
2022-08-21T06:00:28.429Z,100501.34
2022-08-21T06:02:55.177Z,100501.56
2022-08-21T06:05:35.878Z,100500.13
2022-08-21T06:08:04.878Z,100510.84
2022-08-21T06:10:32.115Z,100503.41
2022-08-21T06:12:59.045Z,100507.69
2022-08-21T06:15:25.912Z,100511.34
2022-08-21T06:17:54.295Z,100495.97
2022-08-21T06:20:21.108Z,100492.41
2022-08-21T06:22:47.707Z,100511.66
2022-08-21T06:25:14.266Z,100509.06
2022-08-21T06:27:41.089Z,100508.59
2022-08-21T06:30:08.517Z,100503.41
2022-08-21T06:32:35.931Z,100510.00
2022-08-21T06:35:02.584Z,100498.78
2022-08-21T06:37:29.153Z,100499.72
2022-08-21T06:39:55.859Z,100505.69
2022-08-21T06:42:22.472Z,100497.63
2022-08-21T06:44:54.653Z,100493.66
2022-08-21T06:47:21.217Z,100499.72
2022-08-21T06:49:47.756Z,100498.06
2022-08-21T06:52:15.068Z,100490.53
2022-08-21T06:54:41.802Z,100495.09
2022-08-21T06:57:08.634Z,100493.72
2022-08-21T06:59:35.437Z,100483.00
2022-08-21T07:02:01.995Z,100492.84
2022-08-21T07:04:28.775Z,100499.06
2022-08-21T07:06:55.386Z,100487.28
2022-08-21T07:09:24.668Z,100491.31
2022-08-21T07:11:54.383Z,100488.97
2022-08-21T07:14:21.045Z,100491.69
2022-08-21T07:16:48.745Z,100491.81
2022-08-21T07:19:15.339Z,100474.84
2022-08-21T07:21:41.985Z,100487.97
2022-08-21T07:24:08.560Z,100487.25
2022-08-21T07:26:35.341Z,100484.34
2022-08-21T07:29:02.210Z,100469.66
2022-08-21T07:31:28.847Z,100491.13
2022-08-21T07:33:55.692Z,100483.84
2022-08-21T07:36:22.506Z,100489.50
2022-08-21T07:38:49.362Z,100481.38
2022-08-21T07:41:26.418Z,100473.28
2022-08-21T07:43:53.643Z,100478.53
2022-08-21T07:46:20.787Z,100459.47
2022-08-21T07:48:47.703Z,100476.53
2022-08-21T07:51:17.295Z,100470.69
2022-08-21T07:53:49.401Z,100466.44
2022-08-21T07:56:16.049Z,100474.03
2022-08-21T07:58:42.726Z,100472.94
2022-08-21T08:01:09.824Z,100470.63
2022-08-21T08:03:37.694Z,100463.97
2022-08-21T08:06:05.946Z,100467.94
2022-08-21T08:08:33.062Z,100453.25
2022-08-21T08:11:00.924Z,100453.81
2022-08-21T08:13:28.962Z,100458.41
2022-08-21T08:15:55.706Z,100463.34
2022-08-21T08:18:22.424Z,100465.16
2022-08-21T08:20:49.174Z,100463.81
2022-08-21T08:23:16.314Z,100466.19
2022-08-21T08:25:43.170Z,100462.50
2022-08-21T08:28:16.585Z,100465.41
2022-08-21T08:30:44.715Z,100461.25
2022-08-21T08:33:12.223Z,100460.31
2022-08-21T08:35:39.474Z,100456.03
2022-08-21T08:38:06.691Z,100451.53
2022-08-21T08:40:43.674Z,100447.63
2022-08-21T08:43:14.708Z,100441.72
2022-08-21T08:45:46.711Z,100429.56
2022-08-21T08:48:15.747Z,100432.81
2022-08-21T08:50:55.531Z,100418.25
2022-08-21T08:53:30.077Z,100433.31
2022-08-21T08:55:58.756Z,100428.91
2022-08-21T08:58:31.394Z,100428.72
2022-08-21T09:00:59.995Z,100429.44
2022-08-21T09:03:28.867Z,100402.06
2022-08-21T09:06:08.017Z,100424.88
2022-08-21T09:08:49.979Z,100404.69
2022-08-21T09:11:30.132Z,100408.38
2022-08-21T09:14:22.528Z,100407.97
2022-08-21T09:17:20.461Z,100413.50
2022-08-21T09:20:38.185Z,100414.47
2022-08-21T09:23:32.607Z,100415.66
2022-08-21T09:26:13.012Z,100417.91
2022-08-21T09:28:42.301Z,100376.38
2022-08-21T09:31:17.147Z,100400.84
2022-08-21T09:33:43.829Z,100405.38
2022-08-21T09:36:11.331Z,100402.47
2022-08-21T09:38:39.648Z,100406.94
2022-08-21T09:41:11.341Z,100385.78
2022-08-21T09:43:39.570Z,100382.53
2022-08-21T09:46:12.629Z,100408.63
2022-08-21T09:48:48.836Z,100393.91
2022-08-21T09:51:19.297Z,100399.34
2022-08-21T09:53:50.642Z,100405.88
2022-08-21T09:56:57.304Z,100385.16
2022-08-21T09:59:36.422Z,100396.69
2022-08-21T10:02:19.026Z,100391.59
2022-08-21T10:04:55.284Z,100391.44
2022-08-21T10:07:24.817Z,100393.13
2022-08-21T10:10:09.207Z,100389.69
2022-08-21T10:12:50.862Z,100388.56
2022-08-21T10:15:56.157Z,100370.78
2022-08-21T10:18:43.348Z,100377.19
2022-08-21T10:21:27.906Z,100364.66
2022-08-21T10:24:49.895Z,100360.88
2022-08-21T10:27:34.457Z,100373.59
2022-08-21T10:30:09.756Z,100366.31
2022-08-21T10:32:48.687Z,100366.88
2022-08-21T10:35:21.557Z,100350.75
2022-08-21T10:38:33.485Z,100342.41
2022-08-21T10:41:29.629Z,100363.22
2022-08-21T10:44:11.314Z,100360.50
2022-08-21T10:46:58.034Z,100357.22
2022-08-21T10:49:46.078Z,100341.00
2022-08-21T10:52:24.662Z,100336.91
2022-08-21T10:55:04.638Z,100350.50
2022-08-21T10:57:49.967Z,100346.44
2022-08-21T11:00:21.340Z,100346.34
2022-08-21T11:02:59.580Z,100343.59
2022-08-21T11:05:35.114Z,100335.25
2022-08-21T11:08:12.195Z,100344.66
2022-08-21T11:11:00.213Z,100340.94
2022-08-21T11:13:38.402Z,100311.75
2022-08-21T11:16:08.639Z,100322.59
2022-08-21T11:18:40.600Z,100313.00
2022-08-21T11:21:25.107Z,100334.63
2022-08-21T11:24:04.636Z,100312.25
2022-08-21T11:26:51.338Z,100337.19
2022-08-21T11:29:35.684Z,100333.31
2022-08-21T11:32:47.259Z,100320.53
2022-08-21T11:35:31.952Z,100302.31
2022-08-21T11:37:59.188Z,100323.78
2022-08-21T11:40:45.997Z,100309.78
2022-08-21T11:43:27.442Z,100310.03
2022-08-21T11:46:00.697Z,100312.06
2022-08-21T11:49:00.155Z,100300.44
2022-08-21T11:51:46.543Z,100290.47
2022-08-21T11:54:24.895Z,100306.56
2022-08-21T11:57:13.991Z,100294.28
2022-08-21T11:59:42.971Z,100297.22
2022-08-21T12:02:16.027Z,100282.78
2022-08-21T12:04:50.441Z,100296.88
2022-08-21T12:07:30.401Z,100296.38
2022-08-21T12:09:59.083Z,100294.38
2022-08-21T12:12:35.207Z,100294.78
2022-08-21T12:15:22.075Z,100288.25
2022-08-21T12:18:26.487Z,100282.47
2022-08-21T12:21:01.317Z,100258.28
2022-08-21T12:23:34.695Z,100281.47
2022-08-21T12:26:03.466Z,100282.59
2022-08-21T12:28:31.983Z,100282.50
2022-08-21T12:30:58.955Z,100285.06
2022-08-21T12:33:31.279Z,100280.56
2022-08-21T12:36:12.827Z,100271.66
2022-08-21T12:38:54.872Z,100283.50
2022-08-21T12:41:28.663Z,100284.22
2022-08-21T12:44:00.131Z,100270.69
2022-08-21T12:46:35.745Z,100267.72
2022-08-21T12:49:15.178Z,100268.75
2022-08-21T12:52:06.431Z,100264.53
2022-08-21T12:54:40.531Z,100270.53
2022-08-21T12:57:09.462Z,100248.66
2022-08-21T12:59:40.897Z,100260.31
2022-08-21T13:02:29.371Z,100263.75
2022-08-21T13:04:57.604Z,100265.00
2022-08-21T13:07:31.183Z,100249.25
2022-08-21T13:10:02.799Z,100258.78
2022-08-21T13:12:32.650Z,100258.16
2022-08-21T13:15:02.344Z,100248.56
2022-08-21T13:17:35.385Z,100224.75
2022-08-21T13:20:09.599Z,100240.94
2022-08-21T13:22:44.735Z,100250.19
2022-08-21T13:25:16.524Z,100238.84
2022-08-21T13:27:44.939Z,100241.31
2022-08-21T13:30:23.434Z,100234.25
2022-08-21T13:32:56.916Z,100239.38
2022-08-21T13:35:29.692Z,100218.97
2022-08-21T13:37:57.546Z,100244.81
2022-08-21T13:40:41.284Z,100237.56
2022-08-21T13:43:15.269Z,100229.50
2022-08-21T13:45:52.206Z,100226.84
2022-08-21T13:48:20.332Z,100199.66
2022-08-21T13:50:47.554Z,100208.94
2022-08-21T13:53:24.843Z,100207.19
2022-08-21T13:55:52.129Z,100218.53
2022-08-21T13:58:45.600Z,100216.69
2022-08-21T14:01:55.572Z,100218.41
2022-08-21T14:04:53.101Z,100210.50
2022-08-21T14:07:26.823Z,100209.84
2022-08-21T14:09:54.379Z,100206.00
2022-08-21T14:12:29.525Z,100189.59
2022-08-21T14:14:58.197Z,100193.38
2022-08-21T14:17:35.220Z,100205.50
2022-08-21T14:20:02.525Z,100210.59
2022-08-21T14:22:44.862Z,100207.56
2022-08-21T14:25:20.387Z,100201.56
2022-08-21T14:28:09.821Z,100204.47
2022-08-21T14:30:41.277Z,100202.44
2022-08-21T14:33:13.077Z,100197.53
2022-08-21T14:35:40.522Z,100198.81
2022-08-21T14:38:18.550Z,100175.03
2022-08-21T14:40:48.220Z,100176.06
2022-08-21T14:43:14.814Z,100190.34
2022-08-21T14:45:41.742Z,100182.03
2022-08-21T14:48:09.111Z,100183.00
2022-08-21T14:50:35.915Z,100180.22
2022-08-21T14:53:10.857Z,100176.47
2022-08-21T14:55:58.403Z,100185.53
2022-08-21T14:58:25.973Z,100167.50
2022-08-21T15:00:53.625Z,100171.47
2022-08-21T15:03:20.396Z,100165.63
2022-08-21T15:05:47.062Z,100176.53
2022-08-21T15:08:13.685Z,100169.91
2022-08-21T15:10:57.079Z,100173.13
2022-08-21T15:13:28.152Z,100160.88
2022-08-21T15:15:55.083Z,100177.53
2022-08-21T15:18:22.338Z,100160.38
2022-08-21T15:20:49.526Z,100182.19
2022-08-21T15:23:16.491Z,100180.91
2022-08-21T15:25:45.342Z,100175.28
2022-08-21T15:28:12.913Z,100170.97
2022-08-21T15:30:41.450Z,100176.69
2022-08-21T15:33:08.379Z,100183.06
2022-08-21T15:35:38.418Z,100164.91
2022-08-21T15:38:07.858Z,100166.03
2022-08-21T15:40:39.691Z,100174.22
2022-08-21T15:43:46.396Z,100165.66
2022-08-21T15:46:15.558Z,100157.19
2022-08-21T15:48:42.656Z,100166.72
2022-08-21T15:51:11.781Z,100151.78
2022-08-21T15:53:40.870Z,100159.13
2022-08-21T15:56:12.561Z,100158.41
2022-08-21T15:58:39.727Z,100143.75
2022-08-21T16:01:06.500Z,100145.16
2022-08-21T16:03:34.317Z,100157.50
2022-08-21T16:06:00.880Z,100155.72
2022-08-21T16:08:27.573Z,100158.63
2022-08-21T16:10:55.486Z,100142.28
2022-08-21T16:13:29.777Z,100163.13
2022-08-21T16:15:56.653Z,100158.72
2022-08-21T16:18:24.108Z,100157.03
2022-08-21T16:20:51.071Z,100127.97
2022-08-21T16:23:17.832Z,100153.19
2022-08-21T16:25:46.072Z,100147.69
2022-08-21T16:28:16.823Z,100153.34
2022-08-21T16:30:46.798Z,100137.66
2022-08-21T16:33:20.973Z,100153.97
2022-08-21T16:35:48.095Z,100148.34
2022-08-21T16:38:15.210Z,100143.94
2022-08-21T16:40:41.855Z,100142.66
2022-08-21T16:43:08.580Z,100141.03
2022-08-21T16:45:35.180Z,100134.00
2022-08-21T16:48:04.565Z,100116.91
2022-08-21T16:50:31.273Z,100133.63
2022-08-21T16:52:58.113Z,100123.69
2022-08-21T16:55:24.977Z,100132.63
2022-08-21T16:57:51.698Z,100120.56
2022-08-21T17:00:18.441Z,100128.44
2022-08-21T17:02:49.127Z,100128.06
2022-08-21T17:05:16.123Z,100132.00
2022-08-21T17:07:44.287Z,100130.69
2022-08-21T17:10:13.555Z,100116.53
2022-08-21T17:12:42.070Z,100123.34
2022-08-21T17:15:21.805Z,100121.41
2022-08-21T17:17:49.462Z,100125.50
2022-08-21T17:20:17.786Z,100118.41
2022-08-21T17:22:44.365Z,100121.34
2022-08-21T17:25:10.941Z,100104.34
2022-08-21T17:27:38.937Z,100118.28
2022-08-21T17:30:07.209Z,100116.19
2022-08-21T17:32:33.999Z,100127.22
2022-08-21T17:35:00.637Z,100135.06
2022-08-21T17:37:29.270Z,100127.44
2022-08-21T17:39:56.457Z,100079.28
2022-08-21T17:42:25.136Z,100109.41
2022-08-21T17:44:52.169Z,100117.72
2022-08-21T17:47:18.858Z,100108.78
2022-08-21T17:49:45.738Z,100119.13
2022-08-21T17:52:12.333Z,100115.28
2022-08-21T17:54:41.087Z,100096.38
2022-08-21T17:57:08.758Z,100114.66
2022-08-21T17:59:35.481Z,100115.16
2022-08-21T18:02:03.933Z,100122.84
2022-08-21T18:04:34.700Z,100088.53
2022-08-21T18:07:01.250Z,100131.53
2022-08-21T18:09:28.315Z,100124.28
2022-08-21T18:11:59.130Z,100129.72
2022-08-21T18:14:31.438Z,100139.75
2022-08-21T18:16:57.980Z,100132.84
2022-08-21T18:19:28.322Z,100137.25
2022-08-21T18:21:55.990Z,100136.28
2022-08-21T18:24:23.969Z,100142.72
2022-08-21T18:26:59.077Z,100148.47
2022-08-21T18:29:27.016Z,100148.16
2022-08-21T18:31:53.764Z,100155.09
2022-08-21T18:34:35.678Z,100155.78
2022-08-21T18:37:02.747Z,100152.22
2022-08-21T18:39:38.035Z,100158.47
2022-08-21T18:42:10.531Z,100168.97
2022-08-21T18:44:38.975Z,100163.06
2022-08-21T18:47:12.295Z,100150.16
2022-08-21T18:49:39.128Z,100170.97
2022-08-21T18:52:08.194Z,100173.50
2022-08-21T18:54:37.340Z,100168.91
2022-08-21T18:57:08.430Z,100168.25
2022-08-21T18:59:36.295Z,100175.16
2022-08-21T19:02:07.829Z,100178.00
2022-08-21T19:04:44.354Z,100169.69
2022-08-21T19:07:13.656Z,100173.03
2022-08-21T19:09:41.635Z,100165.03
2022-08-21T19:12:14.518Z,100176.75
2022-08-21T19:14:41.393Z,100178.06
2022-08-21T19:17:08.713Z,100181.94
2022-08-21T19:19:36.699Z,100195.13
2022-08-21T19:22:06.189Z,100192.91
2022-08-21T19:24:40.267Z,100165.78
2022-08-21T19:27:16.801Z,100188.44
2022-08-21T19:29:43.438Z,100170.13
2022-08-21T19:32:10.613Z,100182.97
2022-08-21T19:34:38.634Z,100197.84
2022-08-21T19:37:06.512Z,100194.63
2022-08-21T19:39:38.914Z,100196.81
2022-08-21T19:42:10.258Z,100192.88
2022-08-21T19:44:39.593Z,100197.56
2022-08-21T19:47:13.881Z,100186.50
2022-08-21T19:49:52.254Z,100197.00
2022-08-21T19:52:20.366Z,100201.72
2022-08-21T19:54:46.970Z,100199.47
2022-08-21T19:57:14.060Z,100177.53
2022-08-21T19:59:41.522Z,100193.78
2022-08-21T20:02:10.815Z,100190.03
2022-08-21T20:04:38.007Z,100200.91
2022-08-21T20:07:08.140Z,100195.66
2022-08-21T20:09:36.956Z,100199.84
2022-08-21T20:12:10.325Z,100203.16
2022-08-21T20:14:46.107Z,100201.41
2022-08-21T20:17:16.294Z,100170.31
2022-08-21T20:19:45.491Z,100195.38
2022-08-21T20:22:12.903Z,100195.28
2022-08-21T20:24:42.032Z,100200.00
2022-08-21T20:27:12.555Z,100206.25
2022-08-21T20:29:39.496Z,100208.25
2022-08-21T20:32:08.029Z,100202.44
2022-08-21T20:34:39.953Z,100193.91
2022-08-21T20:37:06.703Z,100207.63
2022-08-21T20:39:35.889Z,100209.38
2022-08-21T20:42:04.565Z,100210.38
2022-08-21T20:44:34.389Z,100204.63
2022-08-21T20:47:09.037Z,100204.91
2022-08-21T20:49:43.115Z,100205.38
2022-08-21T20:52:10.904Z,100195.09
2022-08-21T20:54:50.057Z,100208.84
2022-08-21T20:57:51.065Z,100208.28
2022-08-21T21:00:20.922Z,100194.03
2022-08-21T21:02:50.800Z,100222.78
2022-08-21T21:05:25.891Z,100226.31
2022-08-21T21:08:00.714Z,100213.19
2022-08-21T21:10:52.232Z,100221.72
2022-08-21T21:13:32.753Z,100204.47
2022-08-21T21:16:04.497Z,100228.03
2022-08-21T21:18:44.528Z,100225.88
2022-08-21T21:21:33.138Z,100232.13
2022-08-21T21:24:05.785Z,100235.13
2022-08-21T21:26:52.226Z,100233.19
2022-08-21T21:29:29.978Z,100234.31
2022-08-21T21:32:18.370Z,100240.28
2022-08-21T21:34:46.614Z,100236.03
2022-08-21T21:37:25.801Z,100216.50
2022-08-21T21:40:08.950Z,100239.00
2022-08-21T21:42:49.394Z,100243.53
2022-08-21T21:45:44.941Z,100248.22
2022-08-21T21:48:36.545Z,100249.06
2022-08-21T21:51:15.219Z,100226.41
2022-08-21T21:54:04.921Z,100251.06
2022-08-21T21:56:31.587Z,100244.81
2022-08-21T21:59:13.714Z,100221.31
2022-08-21T22:01:51.323Z,100241.13
2022-08-21T22:04:50.885Z,100241.97
2022-08-21T22:07:55.883Z,100235.78
2022-08-21T22:10:33.499Z,100256.91
2022-08-21T22:13:26.264Z,100235.22
2022-08-21T22:15:54.453Z,100255.78
2022-08-21T22:18:26.704Z,100234.41
2022-08-21T22:20:55.862Z,100255.38
2022-08-21T22:23:38.271Z,100254.97
2022-08-21T22:26:09.916Z,100253.13
2022-08-21T22:28:40.625Z,100241.81
2022-08-21T22:31:21.632Z,100248.19
2022-08-21T22:34:07.136Z,100250.75
2022-08-21T22:36:59.397Z,100251.88
2022-08-21T22:39:39.608Z,100253.72
2022-08-21T22:42:22.673Z,100260.81
2022-08-21T22:44:58.463Z,100252.88
2022-08-21T22:47:33.779Z,100254.72
2022-08-21T22:50:05.461Z,100254.00
2022-08-21T22:52:35.770Z,100259.41
2022-08-21T22:55:24.644Z,100231.75
2022-08-21T22:58:43.349Z,100262.78
2022-08-21T23:01:33.349Z,100255.13
2022-08-21T23:04:14.909Z,100259.09
2022-08-21T23:09:44.994Z,100256.84
2022-08-21T23:12:35.713Z,100255.84
2022-08-21T23:15:07.988Z,100256.72
2022-08-21T23:17:45.545Z,100252.88
2022-08-21T23:20:33.459Z,100257.69
2022-08-21T23:23:23.611Z,100266.63
2022-08-21T23:26:08.296Z,100263.63
2022-08-21T23:29:07.728Z,100264.47
2022-08-21T23:31:46.215Z,100269.00
2022-08-21T23:34:52.466Z,100262.19
2022-08-21T23:37:49.418Z,100264.47
2022-08-21T23:40:39.220Z,100261.34
2022-08-21T23:43:41.971Z,100257.94
2022-08-21T23:46:53.916Z,100258.94
2022-08-21T23:52:53.786Z,100259.66
2022-08-21T23:55:45.315Z,100266.69
2022-08-21T23:58:22.998Z,100265.03
